Greenview, CA (96037)

6:33 AM PDT on August 25, 2016 (GMT -0700)
Greenview Heights, Greenview, CA | | Change Station
Active Advisory: Fire Weather Warning

Elev 3009 ft 41.54 °N, 122.95 °W | Updated 16 seconds ago

Clear
Clear
49.8 °F
Feels Like 50 °F
N
0.0
Wind Variable Wind from South
Gusts 0.0 mph

Today
High -- | Low -- °F
--% Chance of Precip.
Yesterday
High -- | Low -- °F
Precip. -- in
Pressure 30.04 in
Visibility 10.0 miles
Clouds Clear
Windchill 50 °F
Dew Point 33 °F
Humidity 53%
Rainfall 0.00 in
Snow Depth Not available.
6:31 AM 7:55 PM
Last Quarter, 45% visible
METAR KSIY 251253Z AUTO 05006KT 10SM CLR 15/00 A3008 RMK AO2 SLP172 T01500000
Pressure 30.04 in
Visibility 10.0 miles
Clouds Clear
Windchill 50 °F
Dew Point 33 °F
Humidity 53%
Rainfall 0.00 in
Snow Depth Not available.
6:31 AM 7:55 PM
Last Quarter, 45% visible
METAR KSIY 251253Z AUTO 05006KT 10SM CLR 15/00 A3008 RMK AO2 SLP172 T01500000

10-Day Weather Forecast

Almanac

Astronomy

Aug. 25, 2016 Rise Set
Actual Time
Civil Twilight
Nautical Twilight
Astronomical Twilight
Moon
Length of Visible Light
Length of Day
Tomorrow will be .
, % of the Moon is Illuminated

Today's Extremes

State Highs State Lows

Community

WunderPhotos

Upload Photos

1,934,847 photos uploaded!

WunderBlog® & News

Nearby

Air Quality

  Air Quality AQ Index Pollutant
Not available.

Snow Depth

Station Depth Elevation

Earthquake Activity

City Distance Mag. Time & Date
Minimum magnitude displayed is 2.5.

Coastal Water Temperatures

Place Temperature

Stations

Nearby Weather Stations

Station Location Temp. Windchill Dew Point Humidity Wind Precip. Elev Updated Type
                   

Watches & Warnings

Fire Weather Warning
Issued: 12:04 AM PDT Aug. 25, 2016 – National Weather Service

... Red flag warning remains in effect until 11 am this morning
for gusty winds and low humidity for fire weather zones 203 and
204...

* affected area... fire weather zone 203 and 204 above 2500 feet.

* Wind... northeast 10 to 20 mph with occasional gusts to 30 mph
on the highest peaks.

* Humidity... maximum overnight humidity will be 25 to 40
percent.

* Impacts... any fires that develop will likely spread rapidly.
Outdoor burning is not recommended.

Precautionary/preparedness actions...

A red flag warning means that critical fire weather conditions
are either occurring now... or will shortly. A combination of
strong winds... low relative humidity... and warm temperatures can
contribute to extreme fire behavior.


Http://weather.Gov/Eureka